createdAt,value
2022-09-07T00:00:15.369Z,98492.00
2022-09-07T00:02:46.337Z,98497.00
2022-09-07T00:05:17.312Z,98499.00
2022-09-07T00:07:48.201Z,98496.00
2022-09-07T00:10:19.141Z,98500.00
2022-09-07T00:12:51.203Z,98487.00
2022-09-07T00:15:22.112Z,98478.00
2022-09-07T00:17:52.991Z,98481.00
2022-09-07T00:20:23.901Z,98476.00
2022-09-07T00:22:54.771Z,98475.00
2022-09-07T00:25:25.709Z,98464.00
2022-09-07T00:27:56.583Z,98455.00
2022-09-07T00:30:27.601Z,98458.00
2022-09-07T00:32:58.530Z,98464.00
2022-09-07T00:35:29.415Z,98461.00
2022-09-07T00:38:00.386Z,98454.00
2022-09-07T00:40:31.298Z,98435.00
2022-09-07T00:43:02.207Z,98428.00
2022-09-07T00:45:33.326Z,98421.00
2022-09-07T00:48:27.401Z,98420.00
2022-09-07T00:51:10.010Z,98419.00
2022-09-07T00:53:53.748Z,98408.00
2022-09-07T00:56:29.932Z,98397.00
2022-09-07T00:59:01.769Z,98394.00
2022-09-07T01:01:34.357Z,98403.00
2022-09-07T01:04:05.711Z,98398.00
2022-09-07T01:06:39.783Z,98392.00
2022-09-07T01:09:16.046Z,98394.00
2022-09-07T01:11:51.239Z,98404.00
2022-09-07T01:14:29.054Z,98399.00
2022-09-07T01:17:36.469Z,98388.00
2022-09-07T01:20:54.191Z,98389.00
2022-09-07T01:24:06.957Z,98388.00
2022-09-07T01:27:42.525Z,98392.00
2022-09-07T01:30:17.702Z,98395.00
2022-09-07T01:33:06.681Z,98400.00
2022-09-07T01:35:42.544Z,98403.00
2022-09-07T01:38:44.484Z,98407.00
2022-09-07T01:41:33.458Z,98410.00
2022-09-07T01:44:38.155Z,98411.00
2022-09-07T01:47:21.698Z,98412.00
2022-09-07T01:50:01.817Z,98425.00
2022-09-07T01:53:15.539Z,98427.00
2022-09-07T01:56:02.046Z,98436.00
2022-09-07T01:58:38.684Z,98433.00
2022-09-07T02:01:50.546Z,98429.00
2022-09-07T02:04:41.904Z,98432.00
2022-09-07T02:07:42.852Z,98441.00
2022-09-07T02:10:30.551Z,98436.00
2022-09-07T02:13:12.412Z,98427.00
2022-09-07T02:15:51.465Z,98448.00
2022-09-07T02:18:24.963Z,98445.00
2022-09-07T02:20:59.100Z,98441.00
2022-09-07T02:23:38.680Z,98453.00
2022-09-07T02:26:22.212Z,98451.00
2022-09-07T02:28:53.244Z,98451.00
2022-09-07T02:31:24.374Z,98447.00
2022-09-07T02:33:55.466Z,98459.00
2022-09-07T02:36:33.396Z,98462.00
2022-09-07T02:39:04.399Z,98452.00
2022-09-07T02:41:41.886Z,98464.00
2022-09-07T02:44:27.986Z,98486.00
2022-09-07T02:47:40.970Z,98501.00
2022-09-07T02:50:39.948Z,98509.00
2022-09-07T02:53:40.405Z,98510.00
2022-09-07T02:56:49.169Z,98513.00
2022-09-07T02:59:44.822Z,98512.00
2022-09-07T03:02:33.478Z,98508.00
2022-09-07T03:05:43.950Z,98507.00
2022-09-07T03:08:26.084Z,98507.00
2022-09-07T03:10:58.594Z,98514.00
2022-09-07T03:13:30.429Z,98517.00
2022-09-07T03:16:01.503Z,98511.00
2022-09-07T03:18:32.805Z,98513.00
2022-09-07T03:21:03.921Z,98511.00
2022-09-07T03:23:35.671Z,98514.00
2022-09-07T03:26:06.619Z,98503.00
2022-09-07T03:28:37.495Z,98500.00
2022-09-07T03:31:08.453Z,98498.00
2022-09-07T03:33:39.399Z,98508.00
2022-09-07T03:36:10.299Z,98506.00
2022-09-07T03:38:41.213Z,98501.00
2022-09-07T03:41:12.809Z,98497.00
2022-09-07T03:43:44.885Z,98495.00
2022-09-07T03:46:19.387Z,98509.00
2022-09-07T03:48:50.580Z,98506.00
2022-09-07T03:51:21.470Z,98498.00
2022-09-07T03:53:52.482Z,98501.00
2022-09-07T03:56:25.263Z,98503.00
2022-09-07T03:58:56.438Z,98493.00
2022-09-07T04:01:27.954Z,98511.00
2022-09-07T04:04:02.685Z,98509.00
2022-09-07T04:06:33.854Z,98516.00
2022-09-07T04:09:07.758Z,98505.00
2022-09-07T04:11:40.432Z,98515.00
2022-09-07T04:14:12.149Z,98512.00
2022-09-07T04:16:44.943Z,98514.00
2022-09-07T04:19:18.342Z,98518.00
2022-09-07T04:21:49.393Z,98520.00
2022-09-07T04:24:20.715Z,98515.00
2022-09-07T04:26:52.664Z,98515.00
2022-09-07T04:29:24.328Z,98520.00
2022-09-07T04:31:56.006Z,98522.00
2022-09-07T04:34:27.124Z,98514.00
2022-09-07T04:36:58.053Z,98515.00
2022-09-07T04:39:28.999Z,98518.00
2022-09-07T04:41:59.898Z,98517.00
2022-09-07T04:44:30.900Z,98521.00
2022-09-07T04:47:01.784Z,98521.00
2022-09-07T04:49:32.759Z,98518.00
2022-09-07T04:52:03.749Z,98507.00
2022-09-07T04:54:34.676Z,98502.00
2022-09-07T04:57:05.888Z,98516.00
2022-09-07T04:59:36.790Z,98513.00
2022-09-07T05:02:07.743Z,98511.00
2022-09-07T05:04:38.707Z,98510.00
2022-09-07T05:07:09.592Z,98513.00
2022-09-07T05:09:40.573Z,98510.00
2022-09-07T05:12:11.463Z,98511.00
2022-09-07T05:14:42.429Z,98515.00
2022-09-07T05:17:13.385Z,98514.00
2022-09-07T05:19:44.370Z,98512.00
2022-09-07T05:22:15.316Z,98502.00
2022-09-07T05:24:47.670Z,98509.00
2022-09-07T05:27:18.685Z,98512.00
2022-09-07T05:30:05.812Z,98506.00
2022-09-07T05:32:37.232Z,98510.00
2022-09-07T05:35:08.710Z,98508.00
2022-09-07T05:37:39.632Z,98508.00
2022-09-07T05:40:15.717Z,98507.00
2022-09-07T05:42:46.651Z,98519.00
2022-09-07T05:45:18.008Z,98538.00
2022-09-07T05:47:50.849Z,98536.00
2022-09-07T05:50:22.118Z,98540.00
2022-09-07T05:52:52.989Z,98536.00
2022-09-07T05:55:30.959Z,98551.00
2022-09-07T05:58:01.888Z,98531.00
2022-09-07T06:00:33.340Z,98529.00
2022-09-07T06:03:04.605Z,98526.00
2022-09-07T06:05:35.564Z,98534.00
2022-09-07T06:08:06.584Z,98527.00
2022-09-07T06:10:45.517Z,98535.00
2022-09-07T06:13:16.469Z,98531.00
2022-09-07T06:15:47.407Z,98539.00
2022-09-07T06:18:18.428Z,98541.00
2022-09-07T06:20:49.560Z,98539.00
2022-09-07T06:23:20.489Z,98535.00
2022-09-07T06:25:51.471Z,98534.00
2022-09-07T06:28:32.361Z,98534.00
2022-09-07T06:31:07.668Z,98537.00
2022-09-07T06:33:38.922Z,98534.00
2022-09-07T06:36:13.932Z,98530.00
2022-09-07T06:38:45.743Z,98529.00
2022-09-07T06:44:16.937Z,98520.00
2022-09-07T06:47:03.911Z,98515.00
2022-09-07T06:49:35.398Z,98511.00
2022-09-07T06:52:06.563Z,98538.00
2022-09-07T06:57:28.343Z,98515.00
2022-09-07T06:59:59.328Z,98515.00
2022-09-07T07:02:30.221Z,98530.00
2022-09-07T07:05:01.373Z,98530.00
2022-09-07T07:07:32.477Z,98538.00
2022-09-07T07:10:03.644Z,98538.00
2022-09-07T07:15:08.931Z,98516.00
2022-09-07T07:17:40.001Z,98518.00
2022-09-07T07:20:11.050Z,98528.00
2022-09-07T07:22:46.495Z,98535.00
2022-09-07T07:25:19.188Z,98524.00
2022-09-07T07:27:50.421Z,98538.00
2022-09-07T07:30:21.567Z,98540.00
2022-09-07T07:32:52.931Z,98540.00
2022-09-07T07:35:24.413Z,98551.00
2022-09-07T07:43:46.205Z,98550.00
2022-09-07T07:46:17.856Z,98555.00
2022-09-07T07:48:49.149Z,98560.00
2022-09-07T07:51:20.853Z,98570.00
2022-09-07T07:53:51.710Z,98566.00
2022-09-07T07:56:22.838Z,98570.00
2022-09-07T07:58:53.824Z,98569.00
2022-09-07T08:01:24.949Z,98566.00
2022-09-07T08:03:55.899Z,98568.00
2022-09-07T08:06:27.649Z,98562.00
2022-09-07T08:08:58.571Z,98566.00
2022-09-07T08:11:31.229Z,98570.00
2022-09-07T08:14:06.225Z,98573.00
2022-09-07T08:16:37.748Z,98582.00
2022-09-07T08:19:08.959Z,98585.00
2022-09-07T08:21:39.974Z,98589.00
2022-09-07T08:24:10.928Z,98579.00
2022-09-07T08:26:41.889Z,98583.00
2022-09-07T08:29:13.270Z,98581.00
2022-09-07T08:31:44.749Z,98581.00
2022-09-07T08:34:16.234Z,98584.00
2022-09-07T08:36:47.388Z,98592.00
2022-09-07T08:39:18.444Z,98585.00
2022-09-07T08:42:29.448Z,98592.00
2022-09-07T08:45:17.395Z,98594.00
2022-09-07T08:47:51.691Z,98593.00
2022-09-07T08:50:33.850Z,98583.00
2022-09-07T08:53:16.078Z,98576.00
2022-09-07T08:55:57.081Z,98582.00
2022-09-07T08:58:49.835Z,98584.00
2022-09-07T09:01:31.632Z,98583.00
2022-09-07T09:04:20.395Z,98597.00
2022-09-07T09:07:31.708Z,98577.00
2022-09-07T09:10:39.349Z,98579.00
2022-09-07T09:13:24.209Z,98581.00
2022-09-07T09:16:14.680Z,98575.00
2022-09-07T09:19:12.251Z,98592.00
2022-09-07T09:21:43.767Z,98565.00
2022-09-07T09:24:31.054Z,98566.00
2022-09-07T09:27:02.075Z,98567.00
2022-09-07T09:29:34.096Z,98560.00
2022-09-07T09:32:34.612Z,98557.00
2022-09-07T09:35:23.577Z,98557.00
2022-09-07T09:37:54.605Z,98544.00
2022-09-07T09:40:30.935Z,98546.00
2022-09-07T09:43:24.956Z,98545.00
2022-09-07T09:46:13.681Z,98553.00
2022-09-07T09:48:54.189Z,98546.00
2022-09-07T09:54:38.795Z,98544.00
2022-09-07T10:01:23.072Z,98535.00
2022-09-07T10:06:30.174Z,98529.00
2022-09-07T10:09:02.535Z,98523.00
2022-09-07T10:14:44.762Z,98518.00
2022-09-07T10:17:37.938Z,98521.00
2022-09-07T10:20:17.597Z,98515.00
2022-09-07T10:22:54.617Z,98503.00
2022-09-07T10:25:39.751Z,98505.00
2022-09-07T10:28:11.438Z,98508.00
2022-09-07T10:31:15.283Z,98509.00
2022-09-07T10:37:11.258Z,98500.00
2022-09-07T10:39:48.534Z,98501.00
2022-09-07T10:42:30.566Z,98506.00
2022-09-07T10:45:47.394Z,98503.00
2022-09-07T10:48:51.194Z,98499.00
2022-09-07T10:51:52.570Z,98490.00
2022-09-07T10:54:55.940Z,98491.00
2022-09-07T10:57:33.070Z,98486.00
2022-09-07T11:00:18.568Z,98485.00
2022-09-07T11:03:26.448Z,98497.00
2022-09-07T11:06:17.975Z,98488.00
2022-09-07T11:09:23.097Z,98488.00
2022-09-07T11:12:01.965Z,98500.00
2022-09-07T11:14:44.819Z,98485.00
2022-09-07T11:17:28.324Z,98478.00
2022-09-07T11:20:38.871Z,98470.00
2022-09-07T11:23:40.885Z,98470.00
2022-09-07T11:26:25.784Z,98477.00
2022-09-07T11:29:30.729Z,98468.00
2022-09-07T11:32:23.913Z,98470.00
2022-09-07T11:35:09.794Z,98471.00
2022-09-07T11:37:59.380Z,98478.00
2022-09-07T11:41:06.482Z,98459.00
2022-09-07T11:43:45.365Z,98450.00
2022-09-07T11:46:32.659Z,98455.00
2022-09-07T11:49:11.030Z,98451.00
2022-09-07T11:52:08.658Z,98446.00
2022-09-07T11:54:47.071Z,98439.00
2022-09-07T11:57:45.215Z,98445.00
2022-09-07T12:00:23.420Z,98441.00
2022-09-07T12:03:16.090Z,98440.00
2022-09-07T12:06:00.520Z,98444.00
2022-09-07T12:09:06.337Z,98435.00
2022-09-07T12:12:07.198Z,98432.00
2022-09-07T12:14:56.040Z,98426.00
2022-09-07T12:17:54.912Z,98423.00
2022-09-07T12:20:58.495Z,98415.00
2022-09-07T12:23:33.880Z,98423.00
2022-09-07T12:26:40.069Z,98422.00
2022-09-07T12:29:23.988Z,98428.00
2022-09-07T12:32:53.756Z,98423.00
2022-09-07T12:34:57.979Z,98421.00
2022-09-07T12:37:39.144Z,98425.00
2022-09-07T12:40:39.498Z,98422.00
2022-09-07T12:43:13.494Z,98423.00
2022-09-07T12:45:47.578Z,98417.00
2022-09-07T12:48:18.431Z,98414.00
2022-09-07T12:55:26.627Z,98405.00
2022-09-07T12:58:16.300Z,98403.00
2022-09-07T13:01:35.848Z,98408.00
2022-09-07T13:04:42.313Z,98409.00
2022-09-07T13:07:29.915Z,98398.00
2022-09-07T13:10:04.836Z,98397.00
2022-09-07T13:12:57.470Z,98396.00
2022-09-07T13:16:13.872Z,98402.00
2022-09-07T13:18:46.453Z,98391.00
2022-09-07T13:21:18.458Z,98399.00
2022-09-07T13:27:28.780Z,98389.00
2022-09-07T13:30:22.734Z,98397.00
2022-09-07T13:33:25.950Z,98382.00
2022-09-07T13:36:05.157Z,98369.00
2022-09-07T13:38:36.896Z,98366.00
2022-09-07T13:41:15.999Z,98367.00
2022-09-07T13:43:48.985Z,98365.00
2022-09-07T13:46:50.698Z,98362.00
2022-09-07T13:49:38.553Z,98361.00
2022-09-07T13:52:35.818Z,98357.00
2022-09-07T13:55:27.236Z,98354.00
2022-09-07T13:58:22.312Z,98344.00
2022-09-07T14:01:21.283Z,98352.00
2022-09-07T14:04:09.313Z,98349.00
2022-09-07T14:06:40.201Z,98344.00
2022-09-07T14:09:21.523Z,98354.00
2022-09-07T14:11:56.698Z,98346.00
2022-09-07T14:14:31.071Z,98342.00
2022-09-07T14:17:02.353Z,98337.00
2022-09-07T14:19:41.371Z,98334.00
2022-09-07T14:22:20.245Z,98340.00
2022-09-07T14:24:53.871Z,98345.00
2022-09-07T14:27:38.719Z,98340.00
2022-09-07T14:30:33.254Z,98334.00
2022-09-07T14:33:17.411Z,98329.00
2022-09-07T14:35:49.073Z,98330.00
2022-09-07T14:41:22.358Z,98325.00
2022-09-07T14:43:59.160Z,98335.00
2022-09-07T14:46:34.564Z,98333.00
2022-09-07T14:49:20.017Z,98328.00
2022-09-07T14:51:53.762Z,98324.00
2022-09-07T14:54:34.214Z,98317.00
2022-09-07T14:57:30.682Z,98311.00
2022-09-07T15:00:31.678Z,98316.00
2022-09-07T15:03:42.749Z,98318.00
2022-09-07T15:09:37.364Z,98312.00
2022-09-07T15:12:38.342Z,98302.00
2022-09-07T15:15:26.730Z,98301.00
2022-09-07T15:18:07.488Z,98299.00
2022-09-07T15:20:45.638Z,98291.00
2022-09-07T15:23:19.569Z,98294.00
2022-09-07T15:25:53.632Z,98297.00
2022-09-07T15:34:18.527Z,98304.00
2022-09-07T15:36:52.265Z,98305.00
2022-09-07T15:39:29.656Z,98307.00
2022-09-07T15:42:59.626Z,98291.00
2022-09-07T15:44:53.524Z,98296.00
2022-09-07T15:50:15.325Z,98305.00
2022-09-07T15:52:46.807Z,98307.00
2022-09-07T15:55:17.925Z,98318.00
2022-09-07T15:57:52.766Z,98320.00
2022-09-07T16:00:27.999Z,98298.00
2022-09-07T16:03:08.176Z,98288.00
2022-09-07T16:05:44.452Z,98304.00
2022-09-07T16:11:23.880Z,98288.00
2022-09-07T16:14:02.093Z,98282.00
2022-09-07T16:19:24.594Z,98263.00
2022-09-07T16:21:57.435Z,98258.00
2022-09-07T16:24:28.920Z,98257.00
2022-09-07T16:27:00.456Z,98265.00
2022-09-07T16:29:31.864Z,98265.00
2022-09-07T16:34:54.449Z,98267.00
2022-09-07T16:37:25.622Z,98267.00
2022-09-07T16:39:56.776Z,98268.00
2022-09-07T16:42:30.416Z,98265.00
2022-09-07T16:47:57.301Z,98278.00
2022-09-07T16:50:28.317Z,98279.00
2022-09-07T16:52:59.146Z,98274.00
2022-09-07T16:55:30.374Z,98270.00
2022-09-07T17:00:52.185Z,98279.00
2022-09-07T17:03:23.186Z,98274.00
2022-09-07T17:05:54.680Z,98284.00
2022-09-07T17:08:25.981Z,98303.00
2022-09-07T17:11:10.077Z,98290.00
2022-09-07T17:13:43.039Z,98279.00
2022-09-07T17:16:17.225Z,98282.00
2022-09-07T17:21:40.809Z,98263.00
2022-09-07T17:24:12.453Z,98267.00
2022-09-07T17:26:43.727Z,98265.00
2022-09-07T17:29:14.944Z,98269.00
2022-09-07T17:34:36.879Z,98284.00
2022-09-07T17:37:08.317Z,98284.00
2022-09-07T17:39:40.317Z,98283.00
2022-09-07T17:42:11.326Z,98282.00
2022-09-07T17:44:42.437Z,98294.00
2022-09-07T17:47:13.755Z,98301.00
2022-09-07T17:49:45.741Z,98300.00
2022-09-07T17:52:16.897Z,98305.00
2022-09-07T17:54:47.854Z,98313.00
2022-09-07T17:57:19.150Z,98317.00
2022-09-07T18:02:41.342Z,98325.00
2022-09-07T18:05:12.753Z,98311.00
2022-09-07T18:07:43.739Z,98304.00
2022-09-07T18:10:15.178Z,98323.00
2022-09-07T18:12:46.156Z,98338.00
2022-09-07T18:15:18.653Z,98348.00
2022-09-07T18:17:49.797Z,98349.00
2022-09-07T18:20:23.111Z,98341.00
2022-09-07T18:22:54.205Z,98323.00
2022-09-07T18:25:25.607Z,98310.00
2022-09-07T18:30:49.088Z,98271.00
2022-09-07T18:33:20.329Z,98264.00
2022-09-07T18:35:51.206Z,98269.00
2022-09-07T18:38:22.345Z,98288.00
2022-09-07T18:41:05.149Z,98296.00
2022-09-07T18:43:39.104Z,98297.00
2022-09-07T18:46:15.869Z,98301.00
2022-09-07T18:48:47.332Z,98307.00
2022-09-07T18:51:19.640Z,98312.00
2022-09-07T18:53:50.691Z,98334.00
2022-09-07T18:56:22.376Z,98343.00
2022-09-07T18:58:57.336Z,98365.00
2022-09-07T19:01:29.040Z,98336.00
2022-09-07T19:04:00.404Z,98331.00
2022-09-07T19:06:31.846Z,98337.00
2022-09-07T19:09:04.621Z,98328.00
2022-09-07T19:11:35.655Z,98334.00
2022-09-07T19:14:06.966Z,98330.00
2022-09-07T19:16:38.514Z,98318.00
2022-09-07T19:19:12.077Z,98325.00
2022-09-07T19:21:43.449Z,98326.00
2022-09-07T19:24:17.857Z,98332.00
2022-09-07T19:26:50.280Z,98319.00
2022-09-07T19:29:23.370Z,98323.00
2022-09-07T19:32:04.381Z,98335.00
2022-09-07T19:34:38.693Z,98342.00
2022-09-07T19:37:12.967Z,98340.00
2022-09-07T19:39:44.059Z,98338.00
2022-09-07T19:42:15.174Z,98331.00
2022-09-07T19:44:46.509Z,98330.00
2022-09-07T19:47:17.957Z,98326.00
2022-09-07T19:49:48.977Z,98335.00
2022-09-07T19:52:20.311Z,98312.00
2022-09-07T19:54:51.579Z,98301.00
2022-09-07T19:57:22.576Z,98300.00
2022-09-07T19:59:56.719Z,98316.00
2022-09-07T20:02:27.695Z,98316.00
2022-09-07T20:04:59.126Z,98305.00
2022-09-07T20:07:30.173Z,98303.00
2022-09-07T20:10:01.101Z,98297.00
2022-09-07T20:12:32.293Z,98292.00
2022-09-07T20:15:03.688Z,98286.00
2022-09-07T20:17:35.638Z,98283.00
2022-09-07T20:20:07.700Z,98268.00
2022-09-07T20:22:38.983Z,98285.00
2022-09-07T20:25:13.093Z,98280.00
2022-09-07T20:27:44.356Z,98263.00
2022-09-07T20:30:17.721Z,98259.00
2022-09-07T20:32:48.669Z,98255.00
2022-09-07T20:35:19.845Z,98256.00
2022-09-07T20:37:51.044Z,98252.00
2022-09-07T20:40:22.417Z,98261.00
2022-09-07T20:42:53.569Z,98241.00
2022-09-07T20:45:28.544Z,98228.00
2022-09-07T20:48:02.444Z,98233.00
2022-09-07T20:50:33.844Z,98229.00
2022-09-07T20:53:05.136Z,98226.00
2022-09-07T20:55:36.273Z,98227.00
2022-09-07T20:58:07.212Z,98229.00
2022-09-07T21:00:38.416Z,98232.00
2022-09-07T21:03:10.677Z,98234.00
2022-09-07T21:05:41.564Z,98258.00
2022-09-07T21:08:13.244Z,98239.00
2022-09-07T21:10:46.862Z,98244.00
2022-09-07T21:13:17.863Z,98246.00
2022-09-07T21:15:49.166Z,98233.00
2022-09-07T21:18:20.289Z,98238.00
2022-09-07T21:21:18.813Z,98235.00
2022-09-07T21:24:00.206Z,98247.00
2022-09-07T21:26:32.719Z,98250.00
2022-09-07T21:29:05.368Z,98263.00
2022-09-07T21:31:36.347Z,98259.00
2022-09-07T21:34:07.362Z,98258.00
2022-09-07T21:36:38.218Z,98250.00
2022-09-07T21:39:12.549Z,98249.00
2022-09-07T21:41:45.600Z,98250.00
2022-09-07T21:44:16.802Z,98249.00
2022-09-07T21:46:47.736Z,98241.00
2022-09-07T21:49:18.606Z,98257.00
2022-09-07T21:51:49.539Z,98247.00
2022-09-07T21:54:20.398Z,98246.00
2022-09-07T21:56:53.229Z,98251.00
2022-09-07T21:59:24.174Z,98250.00
2022-09-07T22:01:55.145Z,98259.00
2022-09-07T22:04:26.064Z,98273.00
2022-09-07T22:06:56.912Z,98244.00
2022-09-07T22:09:27.804Z,98240.00
2022-09-07T22:12:00.019Z,98237.00
2022-09-07T22:14:30.983Z,98224.00
2022-09-07T22:17:02.455Z,98221.00
2022-09-07T22:19:33.343Z,98211.00
2022-09-07T22:22:04.402Z,98203.00
2022-09-07T22:24:35.268Z,98199.00
2022-09-07T22:27:06.191Z,98199.00
2022-09-07T22:29:37.109Z,98194.00
2022-09-07T22:32:08.032Z,98194.00
2022-09-07T22:34:38.892Z,98199.00
2022-09-07T22:37:10.381Z,98197.00
2022-09-07T22:39:41.274Z,98191.00
2022-09-07T22:42:12.153Z,98180.00
2022-09-07T22:44:43.193Z,98173.00
2022-09-07T22:47:14.047Z,98170.00
2022-09-07T22:49:44.914Z,98167.00
2022-09-07T22:52:15.775Z,98166.00
2022-09-07T22:54:46.650Z,98165.00
2022-09-07T22:57:17.609Z,98161.00
2022-09-07T22:59:48.460Z,98155.00
2022-09-07T23:02:19.358Z,98162.00
2022-09-07T23:04:50.273Z,98157.00
2022-09-07T23:07:21.947Z,98153.00
2022-09-07T23:09:52.817Z,98158.00
2022-09-07T23:12:23.682Z,98182.00
2022-09-07T23:14:54.520Z,98171.00
2022-09-07T23:17:25.356Z,98157.00
2022-09-07T23:19:56.218Z,98158.00
2022-09-07T23:22:27.192Z,98158.00
2022-09-07T23:24:58.044Z,98157.00
2022-09-07T23:27:28.985Z,98156.00
2022-09-07T23:29:59.907Z,98156.00
2022-09-07T23:32:31.103Z,98148.00
2022-09-07T23:35:03.418Z,98142.00
2022-09-07T23:37:34.458Z,98126.00
2022-09-07T23:40:06.477Z,98121.00
2022-09-07T23:42:37.359Z,98114.00
2022-09-07T23:45:09.137Z,98113.00
2022-09-07T23:47:40.162Z,98112.00
2022-09-07T23:50:11.341Z,98106.00
2022-09-07T23:52:42.387Z,98106.00
2022-09-07T23:55:13.386Z,98103.00
2022-09-07T23:57:44.219Z,98106.00
